Time;durP1;ratioP1;P1;durP2;ratioP2;P2;SDS_P1;SDS_P2;PMS_P1;PMS_P2;Temp;Humidity;BMP_temperature;BMP_pressure;BME280_temperature;BME280_humidity;BME280_pressure;Samples;Min_cycle;Max_cycle;Signal;HPM_P1;HPM_P2
2022/04/18 00:01:40;;;;;;;3.13;2.20;;;;;;;;;;5071166;28;20099;-81
2022/04/18 00:04:05;;;;;;;6.53;2.75;;;;;;;;;;5077520;28;20028;-81
2022/04/18 00:06:35;;;;;;;4.85;2.72;;;;;;;;;;5081013;28;20032;-82
2022/04/18 00:09:01;;;;;;;5.13;3.03;;;;;;;;;;5062673;28;20055;-81
2022/04/18 00:11:26;;;;;;;6.15;2.55;;;;;;;;;;5083988;28;20024;-83
2022/04/18 00:13:52;;;;;;;5.05;2.65;;;;;;;;;;5073515;28;20115;-81
2022/04/18 00:16:17;;;;;;;4.45;2.53;;;;;;;;;;5075145;28;20025;-82
2022/04/18 00:18:43;;;;;;;4.35;2.63;;;;;;;;;;5068383;28;20081;-83
2022/04/18 00:21:08;;;;;;;4.28;2.30;;;;;;;;;;5071264;28;20271;-80
2022/04/18 00:23:33;;;;;;;6.43;2.33;;;;;;;;;;5055146;28;20025;-84
2022/04/18 00:25:59;;;;;;;6.28;2.72;;;;;;;;;;5048366;28;20021;-84
2022/04/18 00:28:24;;;;;;;3.25;2.50;;;;;;;;;;5043681;28;20033;-82
2022/04/18 00:30:50;;;;;;;3.53;2.38;;;;;;;;;;5063314;28;20077;-80
2022/04/18 00:33:15;;;;;;;4.55;2.83;;;;;;;;;;5064427;28;20020;-82
2022/04/18 00:35:40;;;;;;;6.82;3.40;;;;;;;;;;5084937;28;20016;-81
2022/04/18 00:38:06;;;;;;;5.10;2.83;;;;;;;;;;5053494;28;20045;-81
2022/04/18 00:40:31;;;;;;;4.00;2.40;;;;;;;;;;5062708;28;20447;-82
2022/04/18 00:43:04;;;;;;;5.28;2.67;;;;;;;;;;5059599;28;20419;-81
2022/04/18 00:45:29;;;;;;;4.40;2.83;;;;;;;;;;5059028;28;20025;-82
2022/04/18 00:47:55;;;;;;;5.88;3.25;;;;;;;;;;5058776;28;20056;-80
2022/04/18 00:50:21;;;;;;;5.13;2.85;;;;;;;;;;5060133;28;20394;-82
2022/04/18 00:52:47;;;;;;;4.35;2.58;;;;;;;;;;5031138;28;20110;-80
2022/04/18 00:55:13;;;;;;;5.13;2.75;;;;;;;;;;5062349;28;20061;-83
2022/04/18 00:57:40;;;;;;;5.18;3.15;;;;;;;;;;5073504;28;20021;-82
2022/04/18 01:00:07;;;;;;;5.38;2.75;;;;;;;;;;5065691;28;20036;-83
2022/04/18 01:02:32;;;;;;;5.28;2.58;;;;;;;;;;5034986;28;20054;-83
2022/04/18 01:04:58;;;;;;;4.68;2.92;;;;;;;;;;5065897;28;20099;-83
2022/04/18 01:07:24;;;;;;;5.45;2.63;;;;;;;;;;5067820;28;20050;-83
2022/04/18 01:09:49;;;;;;;4.38;2.95;;;;;;;;;;5072670;28;20036;-83
2022/04/18 01:12:14;;;;;;;4.15;2.65;;;;;;;;;;5084637;28;20036;-83
2022/04/18 01:14:47;;;;;;;3.20;2.65;;;;;;;;;;5065240;28;20088;-83
2022/04/18 01:17:12;;;;;;;3.95;2.78;;;;;;;;;;5062218;28;20508;-82
2022/04/18 01:19:38;;;;;;;5.50;2.35;;;;;;;;;;5059233;28;20064;-82
2022/04/18 01:22:04;;;;;;;2.72;2.45;;;;;;;;;;5067381;28;20035;-81
2022/04/18 01:30:01;;;;;;;4.45;2.63;;;;;;;;;;5058642;28;20028;-83
2022/04/18 01:32:26;;;;;;;4.75;2.60;;;;;;;;;;5053125;28;20025;-81
2022/04/18 01:34:52;;;;;;;5.70;2.72;;;;;;;;;;5062259;28;20091;-82
2022/04/18 01:37:17;;;;;;;6.15;2.50;;;;;;;;;;5057297;28;20499;-83
2022/04/18 01:39:42;;;;;;;5.72;2.80;;;;;;;;;;5059265;28;20073;-82
2022/04/18 01:42:08;;;;;;;4.22;3.00;;;;;;;;;;5041051;28;20028;-83
2022/04/18 01:44:33;;;;;;;4.38;2.80;;;;;;;;;;5058759;28;20028;-82
2022/04/18 01:46:58;;;;;;;5.47;2.72;;;;;;;;;;5058100;28;20035;-83
2022/04/18 01:49:24;;;;;;;6.22;3.03;;;;;;;;;;5044076;28;20082;-81
2022/04/18 01:51:49;;;;;;;3.47;2.53;;;;;;;;;;5059232;28;20082;-81
2022/04/18 01:54:15;;;;;;;4.57;2.45;;;;;;;;;;5048730;28;20418;-81
2022/04/18 01:56:40;;;;;;;4.82;2.90;;;;;;;;;;5040458;28;20116;-82
2022/04/18 01:59:05;;;;;;;4.85;2.97;;;;;;;;;;5035661;28;20037;-81
2022/04/18 02:01:31;;;;;;;3.78;2.88;;;;;;;;;;5054021;28;20035;-82
2022/04/18 02:03:56;;;;;;;3.58;2.45;;;;;;;;;;5039036;28;20133;-82
2022/04/18 02:06:22;;;;;;;4.78;2.95;;;;;;;;;;5056672;28;20025;-82
2022/04/18 02:08:47;;;;;;;5.18;2.90;;;;;;;;;;5055869;28;20037;-81
2022/04/18 02:11:13;;;;;;;3.83;2.58;;;;;;;;;;5039279;28;20032;-81
2022/04/18 02:13:39;;;;;;;4.88;2.80;;;;;;;;;;5039793;28;20028;-82
2022/04/18 02:16:04;;;;;;;4.45;2.85;;;;;;;;;;5055227;28;20409;-81
2022/04/18 02:18:30;;;;;;;5.53;3.28;;;;;;;;;;5057015;28;20024;-82
2022/04/18 02:20:55;;;;;;;3.75;2.90;;;;;;;;;;5055891;28;20025;-83
2022/04/18 02:23:21;;;;;;;5.63;2.92;;;;;;;;;;5050160;28;20053;-81
2022/04/18 02:25:47;;;;;;;4.43;2.67;;;;;;;;;;5069796;28;20021;-81
2022/04/18 02:28:13;;;;;;;4.75;2.83;;;;;;;;;;5034882;28;20391;-80
2022/04/18 02:30:38;;;;;;;5.25;2.60;;;;;;;;;;5057213;28;20028;-80
2022/04/18 02:33:04;;;;;;;3.17;2.50;;;;;;;;;;5065326;28;20442;-80
2022/04/18 02:35:29;;;;;;;7.80;2.95;;;;;;;;;;5063283;28;20029;-81
2022/04/18 02:37:55;;;;;;;3.88;2.92;;;;;;;;;;5053952;28;20125;-81
2022/04/18 02:40:21;;;;;;;4.07;3.65;;;;;;;;;;5056523;28;20401;-80
2022/04/18 02:42:47;;;;;;;4.47;2.97;;;;;;;;;;5056387;28;20474;-81
2022/04/18 02:45:15;;;;;;;4.13;2.80;;;;;;;;;;5055908;28;20099;-84
2022/04/18 02:47:40;;;;;;;5.78;2.97;;;;;;;;;;5037799;28;20059;-81
2022/04/18 02:50:07;;;;;;;6.15;3.13;;;;;;;;;;5055950;28;20025;-81
2022/04/18 02:52:33;;;;;;;3.83;2.60;;;;;;;;;;5059388;28;20021;-80
2022/04/18 02:54:58;;;;;;;5.60;2.90;;;;;;;;;;5072506;28;20375;-81
2022/04/18 02:57:24;;;;;;;3.53;2.88;;;;;;;;;;5062240;28;20045;-81
2022/04/18 02:59:49;;;;;;;4.25;3.30;;;;;;;;;;5063601;28;20021;-79
2022/04/18 03:02:15;;;;;;;7.88;3.17;;;;;;;;;;5057630;28;20084;-81
2022/04/18 03:04:40;;;;;;;5.63;2.90;;;;;;;;;;5055720;28;20435;-83
2022/04/18 03:07:05;;;;;;;3.47;2.58;;;;;;;;;;5036944;28;20394;-80
2022/04/18 03:09:31;;;;;;;5.88;3.00;;;;;;;;;;5041575;28;20040;-82
2022/04/18 03:14:24;;;;;;;4.50;2.78;;;;;;;;;;5073837;28;20528;-82
2022/04/18 03:16:50;;;;;;;3.85;2.65;;;;;;;;;;5077863;28;20032;-82
2022/04/18 03:19:16;;;;;;;3.25;2.50;;;;;;;;;;5077918;28;20028;-84
2022/04/18 03:21:41;;;;;;;5.03;3.17;;;;;;;;;;5083903;28;20347;-81
2022/04/18 03:24:07;;;;;;;6.75;2.92;;;;;;;;;;5097629;28;20032;-83
2022/04/18 03:26:33;;;;;;;4.85;2.83;;;;;;;;;;5105102;28;20117;-83
2022/04/18 03:28:58;;;;;;;5.25;2.95;;;;;;;;;;5081371;28;20043;-83
2022/04/18 03:31:23;;;;;;;4.28;3.25;;;;;;;;;;5101404;28;20038;-81
2022/04/18 03:33:49;;;;;;;3.78;3.00;;;;;;;;;;5098953;28;20084;-82
2022/04/18 03:41:42;;;;;;;4.55;3.20;;;;;;;;;;5075489;28;20035;-83
2022/04/18 03:44:09;;;;;;;7.45;3.17;;;;;;;;;;5078973;28;20025;-81
2022/04/18 03:46:34;;;;;;;5.30;3.35;;;;;;;;;;5077122;28;20169;-80
2022/04/18 03:49:00;;;;;;;5.30;3.03;;;;;;;;;;5063206;28;20032;-82
2022/04/18 03:51:25;;;;;;;3.90;2.90;;;;;;;;;;5068593;28;20028;-82
2022/04/18 03:53:50;;;;;;;6.85;3.13;;;;;;;;;;5072231;28;20032;-83
2022/04/18 03:56:16;;;;;;;3.38;2.90;;;;;;;;;;5083735;28;20035;-82
2022/04/18 03:58:41;;;;;;;4.72;3.15;;;;;;;;;;5058047;28;20028;-83
2022/04/18 04:01:06;;;;;;;5.25;3.30;;;;;;;;;;5079960;28;20067;-83
2022/04/18 04:03:32;;;;;;;6.38;3.88;;;;;;;;;;5081635;28;20109;-83
2022/04/18 04:05:57;;;;;;;5.40;3.75;;;;;;;;;;5078670;28;20112;-82
2022/04/18 04:08:22;;;;;;;10.20;4.18;;;;;;;;;;5066244;28;20036;-80
2022/04/18 04:10:50;;;;;;;6.97;4.15;;;;;;;;;;5092314;28;20024;-82
2022/04/18 04:13:15;;;;;;;5.40;3.72;;;;;;;;;;5092999;28;20036;-82
2022/04/18 04:15:41;;;;;;;9.35;4.05;;;;;;;;;;5086377;28;20028;-82
2022/04/18 04:18:06;;;;;;;6.18;3.78;;;;;;;;;;5072666;28;20098;-79
2022/04/18 04:20:32;;;;;;;6.90;3.80;;;;;;;;;;5067816;28;20091;-81
2022/04/18 04:22:57;;;;;;;7.97;3.60;;;;;;;;;;5067202;28;20069;-81
2022/04/18 04:25:23;;;;;;;7.85;4.00;;;;;;;;;;5055284;28;20043;-83
2022/04/18 04:27:48;;;;;;;8.63;3.78;;;;;;;;;;5060826;28;20075;-83
2022/04/18 04:30:13;;;;;;;4.55;3.17;;;;;;;;;;5077843;28;20101;-82
2022/04/18 04:32:39;;;;;;;3.75;3.13;;;;;;;;;;5071588;28;20021;-82
2022/04/18 04:35:04;;;;;;;5.20;3.40;;;;;;;;;;5081708;28;20016;-83
2022/04/18 04:37:30;;;;;;;7.43;3.67;;;;;;;;;;5057467;28;20029;-82
2022/04/18 04:39:55;;;;;;;5.13;2.95;;;;;;;;;;5063574;28;20020;-80
2022/04/18 04:42:21;;;;;;;5.55;3.33;;;;;;;;;;5059921;28;20063;-82
2022/04/18 04:44:46;;;;;;;9.57;3.67;;;;;;;;;;5059307;28;20112;-83
2022/04/18 04:47:11;;;;;;;4.70;3.25;;;;;;;;;;5061032;28;20128;-82
2022/04/18 04:49:37;;;;;;;4.22;3.13;;;;;;;;;;5059645;28;20036;-81
2022/04/18 04:52:05;;;;;;;6.28;3.53;;;;;;;;;;5073795;28;20036;-82
2022/04/18 04:54:37;;;;;;;5.30;3.47;;;;;;;;;;5081233;28;20146;-81
2022/04/18 04:57:03;;;;;;;4.75;3.50;;;;;;;;;;5075939;28;20143;-82
2022/04/18 04:59:28;;;;;;;4.10;3.35;;;;;;;;;;5081125;28;20028;-82
2022/04/18 05:01:53;;;;;;;5.90;3.45;;;;;;;;;;5072811;28;20021;-80
2022/04/18 05:04:19;;;;;;;5.38;3.28;;;;;;;;;;5095658;28;20533;-81
2022/04/18 05:06:44;;;;;;;4.40;3.15;;;;;;;;;;5085975;28;20408;-80
2022/04/18 05:09:10;;;;;;;4.90;3.15;;;;;;;;;;5079324;28;20029;-82
2022/04/18 05:11:36;;;;;;;5.68;3.75;;;;;;;;;;5078194;28;20035;-80
2022/04/18 05:14:01;;;;;;;5.88;3.08;;;;;;;;;;5078717;28;20492;-82
2022/04/18 05:16:27;;;;;;;4.60;3.13;;;;;;;;;;5077649;28;20074;-82
2022/04/18 05:18:52;;;;;;;7.13;2.92;;;;;;;;;;5060123;28;20116;-82
2022/04/18 05:21:18;;;;;;;6.97;3.22;;;;;;;;;;5076185;28;20035;-82
2022/04/18 05:23:43;;;;;;;3.38;2.97;;;;;;;;;;5070696;28;20394;-82
2022/04/18 05:26:09;;;;;;;6.55;2.95;;;;;;;;;;5077605;28;20029;-82
2022/04/18 05:28:35;;;;;;;3.80;3.28;;;;;;;;;;5076091;28;20023;-83
2022/04/18 05:31:00;;;;;;;5.90;3.38;;;;;;;;;;5061211;28;20029;-83
2022/04/18 05:33:26;;;;;;;7.90;3.35;;;;;;;;;;5075016;28;20028;-82
2022/04/18 05:35:51;;;;;;;4.93;3.55;;;;;;;;;;5049405;28;20017;-83
2022/04/18 05:38:17;;;;;;;5.72;3.50;;;;;;;;;;5041582;28;20103;-82
2022/04/18 05:40:43;;;;;;;7.43;3.03;;;;;;;;;;5070295;28;20028;-84
2022/04/18 05:43:08;;;;;;;5.45;3.10;;;;;;;;;;5058328;28;20033;-83
2022/04/18 05:45:36;;;;;;;4.10;2.72;;;;;;;;;;5039713;28;20021;-83
2022/04/18 05:48:02;;;;;;;4.38;3.28;;;;;;;;;;5041165;28;20029;-82
2022/04/18 05:50:27;;;;;;;6.43;3.35;;;;;;;;;;5060968;28;20024;-81
2022/04/18 05:52:54;;;;;;;5.95;3.20;;;;;;;;;;5076742;28;20117;-83
2022/04/18 05:55:20;;;;;;;6.18;3.10;;;;;;;;;;5061756;28;20024;-82
2022/04/18 05:57:45;;;;;;;5.55;3.08;;;;;;;;;;5046429;28;20738;-83
2022/04/18 06:00:11;;;;;;;5.32;3.20;;;;;;;;;;5084556;28;20113;-83
2022/04/18 06:02:36;;;;;;;5.38;3.22;;;;;;;;;;5065150;28;20017;-81
2022/04/18 06:05:02;;;;;;;3.90;2.83;;;;;;;;;;5081952;28;20025;-82
2022/04/18 06:07:27;;;;;;;3.45;2.78;;;;;;;;;;5065513;28;20043;-80
2022/04/18 06:09:52;;;;;;;3.70;2.72;;;;;;;;;;5071126;28;20108;-83
2022/04/18 06:12:22;;;;;;;5.10;2.85;;;;;;;;;;5076500;28;20028;-84
2022/04/18 06:14:47;;;;;;;7.05;3.20;;;;;;;;;;5080878;28;20074;-84
2022/04/18 06:17:12;;;;;;;5.43;3.60;;;;;;;;;;5079757;28;20036;-84
2022/04/18 06:19:38;;;;;;;4.70;2.90;;;;;;;;;;5080376;28;20036;-83
2022/04/18 06:22:04;;;;;;;5.93;3.45;;;;;;;;;;5072352;28;20033;-82
2022/04/18 06:24:29;;;;;;;4.82;3.33;;;;;;;;;;5056086;28;20059;-81
2022/04/18 06:26:54;;;;;;;5.07;3.10;;;;;;;;;;5064187;28;20088;-84
2022/04/18 06:29:20;;;;;;;10.50;3.17;;;;;;;;;;5073445;28;20085;-84
2022/04/18 06:31:46;;;;;;;5.95;3.00;;;;;;;;;;5080881;28;20020;-82
2022/04/18 06:34:12;;;;;;;4.50;3.00;;;;;;;;;;5075193;28;20211;-82
2022/04/18 06:36:38;;;;;;;5.68;3.58;;;;;;;;;;5063156;28;20036;-84
2022/04/18 06:39:03;;;;;;;4.07;2.97;;;;;;;;;;5077915;28;20428;-84
2022/04/18 06:41:29;;;;;;;6.28;2.75;;;;;;;;;;5067208;28;20059;-83
2022/04/18 06:43:54;;;;;;;5.07;3.00;;;;;;;;;;5062636;28;20028;-83
2022/04/18 06:46:20;;;;;;;4.22;2.92;;;;;;;;;;5061023;28;20391;-84
2022/04/18 06:48:45;;;;;;;5.28;2.90;;;;;;;;;;5061175;28;20025;-84
2022/04/18 06:51:10;;;;;;;5.90;2.80;;;;;;;;;;5067828;28;20036;-83
2022/04/18 06:53:36;;;;;;;3.72;2.85;;;;;;;;;;5087040;28;20048;-82
2022/04/18 06:58:45;;;;;;;3.40;2.60;;;;;;;;;;5064798;28;20027;-83
2022/04/18 07:01:11;;;;;;;3.95;2.60;;;;;;;;;;5081808;28;20080;-84
2022/04/18 07:03:36;;;;;;;3.90;3.03;;;;;;;;;;5081900;28;20102;-83
2022/04/18 07:06:02;;;;;;;3.60;2.70;;;;;;;;;;5081398;28;20029;-83
2022/04/18 07:08:27;;;;;;;3.95;2.88;;;;;;;;;;5064840;28;20474;-83
2022/04/18 07:10:53;;;;;;;4.28;2.80;;;;;;;;;;5079933;28;20046;-82
2022/04/18 07:13:18;;;;;;;6.32;2.72;;;;;;;;;;5064767;28;20437;-81
2022/04/18 07:15:43;;;;;;;3.65;2.63;;;;;;;;;;5077567;28;20078;-82
2022/04/18 07:18:09;;;;;;;3.42;2.50;;;;;;;;;;5066929;28;20065;-83
2022/04/18 07:20:34;;;;;;;2.97;2.60;;;;;;;;;;5076569;28;20470;-82
2022/04/18 07:23:00;;;;;;;4.97;3.03;;;;;;;;;;5059504;28;20493;-83
2022/04/18 07:25:26;;;;;;;2.72;2.47;;;;;;;;;;5065364;28;20099;-83
2022/04/18 07:27:52;;;;;;;5.57;2.90;;;;;;;;;;5053990;28;20063;-83
2022/04/18 07:30:17;;;;;;;5.32;3.15;;;;;;;;;;5067368;28;20390;-82
2022/04/18 07:32:43;;;;;;;4.78;2.70;;;;;;;;;;5069421;28;20350;-82
2022/04/18 07:35:10;;;;;;;4.60;2.60;;;;;;;;;;5085366;28;20325;-83
2022/04/18 07:37:36;;;;;;;3.58;2.75;;;;;;;;;;5079655;28;20028;-81
2022/04/18 07:40:02;;;;;;;4.95;2.85;;;;;;;;;;5076518;28;20039;-81
2022/04/18 07:42:28;;;;;;;4.53;2.75;;;;;;;;;;5064660;28;20038;-82
2022/04/18 07:44:53;;;;;;;4.90;2.65;;;;;;;;;;5078570;28;20025;-82
2022/04/18 07:47:19;;;;;;;4.43;2.95;;;;;;;;;;5077895;28;20541;-82
2022/04/18 07:49:44;;;;;;;4.15;2.40;;;;;;;;;;5079202;28;20074;-83
2022/04/18 07:52:11;;;;;;;5.40;2.90;;;;;;;;;;5056483;28;20025;-83
2022/04/18 07:54:37;;;;;;;6.80;2.88;;;;;;;;;;5084289;28;20020;-83
2022/04/18 07:57:04;;;;;;;3.55;2.85;;;;;;;;;;5079038;28;20032;-83
2022/04/18 07:59:30;;;;;;;3.38;2.70;;;;;;;;;;5069826;28;20033;-83
2022/04/18 08:01:55;;;;;;;3.72;2.67;;;;;;;;;;5073879;28;20044;-83
2022/04/18 08:04:21;;;;;;;3.75;2.50;;;;;;;;;;5067331;28;20064;-83
2022/04/18 08:06:46;;;;;;;5.13;2.63;;;;;;;;;;5066404;28;20031;-83
2022/04/18 08:09:11;;;;;;;5.05;2.70;;;;;;;;;;5079756;28;20036;-83
2022/04/18 08:11:37;;;;;;;5.07;2.72;;;;;;;;;;5079899;28;20032;-83
2022/04/18 08:14:02;;;;;;;4.97;2.95;;;;;;;;;;5059841;28;20036;-82
2022/04/18 08:16:28;;;;;;;3.60;2.55;;;;;;;;;;5064643;28;20075;-83
2022/04/18 08:18:55;;;;;;;4.97;2.70;;;;;;;;;;5065053;28;20033;-82
2022/04/18 08:21:20;;;;;;;5.28;2.58;;;;;;;;;;5070160;28;20032;-83
2022/04/18 08:23:48;;;;;;;4.53;3.00;;;;;;;;;;5085421;28;20032;-82
2022/04/18 08:26:13;;;;;;;4.78;2.83;;;;;;;;;;5065904;28;20095;-83
2022/04/18 08:28:40;;;;;;;3.28;2.17;;;;;;;;;;5064435;28;20044;-84
2022/04/18 08:31:07;;;;;;;4.18;2.40;;;;;;;;;;5084676;28;20074;-82
2022/04/18 08:33:33;;;;;;;5.50;3.20;;;;;;;;;;5081486;28;20028;-83
2022/04/18 08:35:59;;;;;;;6.43;2.67;;;;;;;;;;5069347;28;20112;-84
2022/04/18 08:38:28;;;;;;;4.90;2.45;;;;;;;;;;5063033;28;20040;-85
2022/04/18 08:40:57;;;;;;;4.95;2.83;;;;;;;;;;5057744;28;20033;-83
2022/04/18 08:43:23;;;;;;;5.25;2.53;;;;;;;;;;5063619;28;20517;-84
2022/04/18 08:45:49;;;;;;;5.10;2.58;;;;;;;;;;5064522;28;20024;-83
2022/04/18 08:53:45;;;;;;;5.15;2.60;;;;;;;;;;5081806;28;20078;-82
2022/04/18 08:56:11;;;;;;;4.15;2.90;;;;;;;;;;5082913;28;20029;-82
2022/04/18 08:58:36;;;;;;;5.50;3.08;;;;;;;;;;5064224;28;20043;-82
2022/04/18 09:01:03;;;;;;;4.10;2.58;;;;;;;;;;5079165;28;20107;-83
2022/04/18 09:03:28;;;;;;;3.10;2.70;;;;;;;;;;5078750;28;20028;-82
2022/04/18 09:06:08;;;;;;;3.90;2.80;;;;;;;;;;5081351;28;20020;-83
2022/04/18 09:08:35;;;;;;;3.78;2.33;;;;;;;;;;5083498;28;20029;-84
2022/04/18 09:11:00;;;;;;;3.60;2.47;;;;;;;;;;5080573;28;20028;-83
2022/04/18 09:13:26;;;;;;;3.65;2.30;;;;;;;;;;5081537;28;20128;-84
2022/04/18 09:15:51;;;;;;;4.53;2.50;;;;;;;;;;5065523;28;20036;-83
2022/04/18 09:18:19;;;;;;;5.38;3.17;;;;;;;;;;5060636;28;20029;-83
2022/04/18 09:20:52;;;;;;;4.68;2.90;;;;;;;;;;5053848;28;20020;-83
2022/04/18 09:23:27;;;;;;;5.28;3.28;;;;;;;;;;5075771;28;20035;-83
2022/04/18 09:26:04;;;;;;;4.22;2.92;;;;;;;;;;5060355;28;20029;-83
2022/04/18 09:28:38;;;;;;;4.00;2.60;;;;;;;;;;5077122;28;20028;-82
2022/04/18 09:31:08;;;;;;;3.05;2.50;;;;;;;;;;5089694;28;20378;-84
2022/04/18 09:33:54;;;;;;;6.10;2.72;;;;;;;;;;5086056;28;20112;-83
2022/04/18 09:36:21;;;;;;;4.65;2.80;;;;;;;;;;5058139;28;20040;-83
2022/04/18 09:38:52;;;;;;;4.60;2.58;;;;;;;;;;5078170;28;20032;-84
2022/04/18 09:41:39;;;;;;;6.60;2.83;;;;;;;;;;5075870;28;20088;-84
2022/04/18 09:44:06;;;;;;;4.35;2.47;;;;;;;;;;5042432;28;20026;-81
2022/04/18 09:46:32;;;;;;;5.07;2.20;;;;;;;;;;5067400;28;20082;-84
2022/04/18 09:49:02;;;;;;;4.30;2.70;;;;;;;;;;5079588;28;20021;-84
2022/04/18 09:51:29;;;;;;;4.90;2.53;;;;;;;;;;5077099;28;20020;-82
2022/04/18 09:53:58;;;;;;;4.07;2.55;;;;;;;;;;5080614;28;20020;-82
2022/04/18 09:56:26;;;;;;;6.80;2.55;;;;;;;;;;5092519;28;20017;-84
2022/04/18 09:58:55;;;;;;;4.57;2.70;;;;;;;;;;5079053;28;20027;-84
2022/04/18 10:01:22;;;;;;;4.13;2.63;;;;;;;;;;5064975;28;20115;-85
2022/04/18 10:03:50;;;;;;;3.70;2.65;;;;;;;;;;5083839;28;20027;-83
2022/04/18 10:06:15;;;;;;;2.95;2.20;;;;;;;;;;5062149;28;20483;-84
2022/04/18 10:08:42;;;;;;;3.63;2.40;;;;;;;;;;5068809;28;20116;-84
2022/04/18 10:11:08;;;;;;;3.03;2.13;;;;;;;;;;5075483;28;20024;-81
2022/04/18 10:13:36;;;;;;;3.45;2.50;;;;;;;;;;5060846;28;20024;-81
2022/04/18 10:16:02;;;;;;;3.88;2.28;;;;;;;;;;5045518;28;20046;-84
2022/04/18 10:18:28;;;;;;;6.10;2.50;;;;;;;;;;5042082;28;20510;-84
2022/04/18 10:20:57;;;;;;;5.30;2.50;;;;;;;;;;5063025;28;20059;-82
2022/04/18 10:23:50;;;;;;;4.32;2.20;;;;;;;;;;5081351;28;20036;-83
2022/04/18 10:26:51;;;;;;;3.70;2.25;;;;;;;;;;5057375;28;20102;-85
2022/04/18 10:29:27;;;;;;;3.38;2.35;;;;;;;;;;5079533;28;20020;-84
2022/04/18 10:31:55;;;;;;;5.50;2.38;;;;;;;;;;5073701;28;20036;-86
2022/04/18 10:34:22;;;;;;;2.78;2.40;;;;;;;;;;5083557;28;20024;-82
2022/04/18 10:36:52;;;;;;;3.88;2.40;;;;;;;;;;5075660;28;20028;-83
2022/04/18 10:39:18;;;;;;;5.63;2.13;;;;;;;;;;5087957;28;20028;-84
2022/04/18 10:41:45;;;;;;;3.13;2.20;;;;;;;;;;5073587;28;20430;-85
2022/04/18 10:44:12;;;;;;;8.43;2.83;;;;;;;;;;5061590;28;20116;-83
2022/04/18 10:46:57;;;;;;;3.38;2.15;;;;;;;;;;5073827;28;20080;-83
2022/04/18 10:49:24;;;;;;;7.75;2.50;;;;;;;;;;5040554;28;20041;-85
2022/04/18 10:51:52;;;;;;;9.82;2.50;;;;;;;;;;5072278;28;20029;-85
2022/04/18 10:54:20;;;;;;;4.60;2.50;;;;;;;;;;5059229;28;20024;-85
2022/04/18 10:57:00;;;;;;;3.00;2.30;;;;;;;;;;5068530;28;20019;-84
2022/04/18 10:59:30;;;;;;;3.83;2.45;;;;;;;;;;5067549;28;20021;-83
2022/04/18 11:01:58;;;;;;;4.93;2.45;;;;;;;;;;5078089;28;20111;-84
2022/04/18 11:04:44;;;;;;;4.68;2.50;;;;;;;;;;5065007;28;20024;-84
2022/04/18 11:07:11;;;;;;;3.25;2.40;;;;;;;;;;5052603;28;20029;-87
2022/04/18 11:09:45;;;;;;;4.50;2.70;;;;;;;;;;5041373;28;20029;-84
2022/04/18 11:12:16;;;;;;;6.00;2.70;;;;;;;;;;5057653;28;20025;-84
2022/04/18 11:14:53;;;;;;;3.30;2.63;;;;;;;;;;5058179;28;20071;-83
2022/04/18 11:17:33;;;;;;;6.28;2.42;;;;;;;;;;5076716;28;20033;-84
2022/04/18 11:20:28;;;;;;;4.25;2.70;;;;;;;;;;5083025;28;20027;-85
2022/04/18 11:23:21;;;;;;;3.78;2.60;;;;;;;;;;5088072;28;20043;-81
2022/04/18 11:26:09;;;;;;;3.92;2.90;;;;;;;;;;5084787;28;20073;-84
2022/04/18 11:28:41;;;;;;;3.35;2.25;;;;;;;;;;5092938;28;20371;-83
2022/04/18 11:31:09;;;;;;;3.40;2.30;;;;;;;;;;5101123;28;20031;-85
2022/04/18 11:33:43;;;;;;;3.42;2.35;;;;;;;;;;5093566;28;20019;-83
2022/04/18 11:36:10;;;;;;;3.25;2.30;;;;;;;;;;5104087;28;20080;-83
2022/04/18 11:38:36;;;;;;;6.35;2.40;;;;;;;;;;5084588;28;20050;-85
2022/04/18 11:41:09;;;;;;;3.17;2.30;;;;;;;;;;5085399;28;20024;-83
2022/04/18 11:43:34;;;;;;;5.10;2.40;;;;;;;;;;5061659;28;20059;-84
2022/04/18 11:46:08;;;;;;;4.47;2.17;;;;;;;;;;5061602;28;20541;-84
2022/04/18 11:48:35;;;;;;;2.75;2.17;;;;;;;;;;5081072;28;20029;-83
2022/04/18 11:51:01;;;;;;;4.93;2.47;;;;;;;;;;5080578;28;20032;-82
2022/04/18 11:53:35;;;;;;;3.35;2.50;;;;;;;;;;5089541;28;20027;-84
2022/04/18 11:56:05;;;;;;;4.18;2.55;;;;;;;;;;5087561;28;20081;-85
2022/04/18 11:58:36;;;;;;;4.05;2.67;;;;;;;;;;5083118;28;20028;-83
2022/04/18 12:06:46;;;;;;;3.85;2.28;;;;;;;;;;5074917;28;20051;-83
2022/04/18 12:09:13;;;;;;;4.97;2.35;;;;;;;;;;5055599;28;20029;-83
2022/04/18 12:11:40;;;;;;;7.78;1.98;;;;;;;;;;5052160;28;20066;-83
2022/04/18 12:14:05;;;;;;;3.38;2.47;;;;;;;;;;5067602;28;20375;-78
2022/04/18 12:16:32;;;;;;;3.28;2.00;;;;;;;;;;5076904;28;20024;-78
2022/04/18 12:18:58;;;;;;;3.83;2.33;;;;;;;;;;5078585;28;20040;-87
2022/04/18 12:21:25;;;;;;;5.05;2.47;;;;;;;;;;5081975;28;20080;-81
2022/04/18 12:24:00;;;;;;;3.75;2.20;;;;;;;;;;5081263;28;20079;-81
2022/04/18 12:26:28;;;;;;;3.05;2.25;;;;;;;;;;5078068;28;20486;-82
2022/04/18 12:29:02;;;;;;;3.47;2.20;;;;;;;;;;5087666;28;20023;-85
2022/04/18 12:31:28;;;;;;;3.50;2.25;;;;;;;;;;5097102;28;20075;-84
2022/04/18 12:33:53;;;;;;;5.38;2.40;;;;;;;;;;5078858;28;20051;-82
2022/04/18 12:36:27;;;;;;;6.55;3.25;;;;;;;;;;5053157;28;20024;-87
2022/04/18 12:38:53;;;;;;;2.50;1.98;;;;;;;;;;5069963;28;20048;-83
2022/04/18 12:41:37;;;;;;;3.83;2.08;;;;;;;;;;5081020;28;20024;-86
2022/04/18 12:44:10;;;;;;;3.03;1.90;;;;;;;;;;5062649;28;20021;-85
2022/04/18 12:46:36;;;;;;;2.83;1.92;;;;;;;;;;5096163;28;20016;-85
2022/04/18 12:49:06;;;;;;;2.67;2.10;;;;;;;;;;5095060;28;20035;-84
2022/04/18 12:51:40;;;;;;;3.03;2.00;;;;;;;;;;5078017;28;20032;-84
2022/04/18 12:54:18;;;;;;;7.65;2.15;;;;;;;;;;5060713;28;20032;-85
2022/04/18 12:56:46;;;;;;;3.28;2.35;;;;;;;;;;5076691;28;20017;-83
2022/04/18 12:59:13;;;;;;;3.03;1.90;;;;;;;;;;5092078;28;20024;-85
2022/04/18 13:01:40;;;;;;;3.80;1.95;;;;;;;;;;5098241;28;20104;-81
2022/04/18 13:04:19;;;;;;;4.45;2.28;;;;;;;;;;5086647;28;20073;-81
2022/04/18 13:06:56;;;;;;;2.20;1.85;;;;;;;;;;5091180;28;20103;-81
2022/04/18 13:09:21;;;;;;;4.20;2.10;;;;;;;;;;5078580;28;20039;-80
2022/04/18 13:11:47;;;;;;;2.67;2.00;;;;;;;;;;5094931;28;20021;-84
2022/04/18 13:14:13;;;;;;;3.13;2.08;;;;;;;;;;5055105;28;20077;-79
2022/04/18 13:16:41;;;;;;;3.85;1.85;;;;;;;;;;5086777;28;20012;-85
2022/04/18 13:19:14;;;;;;;2.95;1.85;;;;;;;;;;5065440;28;20234;-86
2022/04/18 13:21:41;;;;;;;3.70;2.08;;;;;;;;;;5090767;28;20035;-84
2022/04/18 13:24:07;;;;;;;3.53;2.13;;;;;;;;;;5083607;28;20434;-86
2022/04/18 13:26:35;;;;;;;3.03;2.10;;;;;;;;;;5101835;28;20016;-84
2022/04/18 13:29:01;;;;;;;3.15;2.13;;;;;;;;;;5068063;28;20086;-85
2022/04/18 13:31:27;;;;;;;2.83;1.90;;;;;;;;;;5055215;28;20032;-85
2022/04/18 13:33:53;;;;;;;4.68;2.00;;;;;;;;;;5067065;28;20033;-82
2022/04/18 13:36:33;;;;;;;2.28;2.00;;;;;;;;;;5048562;28;20051;-83
2022/04/18 13:39:10;;;;;;;3.08;1.77;;;;;;;;;;5072926;28;20040;-85
2022/04/18 13:41:36;;;;;;;2.17;1.80;;;;;;;;;;5082689;28;20474;-85
2022/04/18 13:44:02;;;;;;;5.75;2.00;;;;;;;;;;5066083;28;20046;-83
2022/04/18 13:46:29;;;;;;;4.10;1.90;;;;;;;;;;5065049;28;20025;-82
2022/04/18 13:48:55;;;;;;;4.45;2.10;;;;;;;;;;5065554;28;20463;-85
2022/04/18 13:51:23;;;;;;;2.90;2.10;;;;;;;;;;5076074;28;20039;-85
2022/04/18 13:53:49;;;;;;;3.20;2.17;;;;;;;;;;5067582;28;20043;-82
2022/04/18 13:56:15;;;;;;;2.47;1.80;;;;;;;;;;5065782;28;20017;-82
2022/04/18 13:58:41;;;;;;;3.15;1.83;;;;;;;;;;5097561;28;20402;-85
2022/04/18 14:01:07;;;;;;;4.35;2.03;;;;;;;;;;5083904;28;20068;-85
2022/04/18 14:03:33;;;;;;;4.25;2.00;;;;;;;;;;5092676;28;20451;-85
2022/04/18 14:06:00;;;;;;;3.00;1.88;;;;;;;;;;5103026;28;20543;-82
2022/04/18 14:08:25;;;;;;;2.97;2.00;;;;;;;;;;5067989;28;20054;-82
2022/04/18 14:10:51;;;;;;;2.88;1.88;;;;;;;;;;5102334;28;20032;-84
2022/04/18 14:13:18;;;;;;;1.83;1.73;;;;;;;;;;5060578;28;20054;-85
2022/04/18 14:21:12;;;;;;;4.07;2.30;;;;;;;;;;5091659;28;20071;-84
2022/04/18 14:23:37;;;;;;;2.50;1.98;;;;;;;;;;5094838;28;20020;-86
2022/04/18 14:26:03;;;;;;;2.30;1.80;;;;;;;;;;5100375;28;20027;-86
2022/04/18 14:28:28;;;;;;;2.22;1.95;;;;;;;;;;5077143;28;20116;-82
2022/04/18 14:30:54;;;;;;;3.45;1.83;;;;;;;;;;5087843;28;20016;-85
2022/04/18 14:33:21;;;;;;;3.20;2.08;;;;;;;;;;5072784;28;20020;-86
2022/04/18 14:35:46;;;;;;;2.92;1.73;;;;;;;;;;5099961;28;20020;-86
2022/04/18 14:38:14;;;;;;;3.10;1.75;;;;;;;;;;5100340;28;20121;-86
2022/04/18 14:40:40;;;;;;;3.55;2.00;;;;;;;;;;5088431;28;20021;-84
2022/04/18 14:43:05;;;;;;;3.20;2.08;;;;;;;;;;5079990;28;20037;-83
2022/04/18 14:45:31;;;;;;;5.70;1.73;;;;;;;;;;5062686;28;20021;-84
2022/04/18 14:47:57;;;;;;;5.03;2.03;;;;;;;;;;5080608;28;20024;-85
2022/04/18 14:50:22;;;;;;;2.75;2.08;;;;;;;;;;5078808;28;20027;-85
2022/04/18 14:52:48;;;;;;;2.42;1.90;;;;;;;;;;5054024;28;20027;-83
2022/04/18 14:55:13;;;;;;;5.78;1.90;;;;;;;;;;5090865;28;20024;-86
2022/04/18 14:57:39;;;;;;;4.93;1.92;;;;;;;;;;5081912;28;20031;-81
2022/04/18 15:00:05;;;;;;;3.13;2.10;;;;;;;;;;5070385;28;20020;-85
2022/04/18 15:02:30;;;;;;;2.47;1.80;;;;;;;;;;5093094;28;20017;-85
2022/04/18 15:04:56;;;;;;;1.77;1.67;;;;;;;;;;5069505;28;20466;-85
2022/04/18 15:07:21;;;;;;;2.60;1.70;;;;;;;;;;5080101;28;20020;-85
2022/04/18 15:09:46;;;;;;;2.53;1.55;;;;;;;;;;5062722;28;20432;-83
2022/04/18 15:12:12;;;;;;;2.25;1.75;;;;;;;;;;5080503;28;20032;-83
2022/04/18 15:14:38;;;;;;;4.97;1.70;;;;;;;;;;5084950;28;20040;-87
2022/04/18 15:17:04;;;;;;;2.50;1.80;;;;;;;;;;5097701;28;20103;-82